Time;durP1;ratioP1;P1;durP2;ratioP2;P2;SDS_P1;SDS_P2;PMS_P1;PMS_P2;Temp;Humidity;BMP_temperature;BMP_pressure;BME280_temperature;BME280_humidity;BME280_pressure;Samples;Min_cycle;Max_cycle;Signal;HPM_P1;HPM_P2
2022/04/15 00:02:01;;;;;;;17.30;10.40;;;;;;;20.41;48.50;102653.84;5044177;28;20049;-37
2022/04/15 00:04:29;;;;;;;14.45;9.68;;;;;;;20.41;49.14;102653.00;5041283;28;20473;-37
2022/04/15 00:06:55;;;;;;;15.15;9.23;;;;;;;20.40;48.55;102657.53;5045870;28;20040;-37
2022/04/15 00:09:22;;;;;;;16.80;9.27;;;;;;;20.39;49.02;102655.84;5045679;28;20041;-37
2022/04/15 00:11:48;;;;;;;15.70;9.77;;;;;;;20.38;48.89;102654.13;5046399;28;20045;-37
2022/04/15 00:14:15;;;;;;;14.88;9.05;;;;;;;20.38;48.59;102653.25;5041820;28;20053;-37
2022/04/15 00:16:43;;;;;;;15.55;10.18;;;;;;;20.36;48.73;102656.06;5042605;28;20059;-37
2022/04/15 00:19:13;;;;;;;15.32;8.98;;;;;;;20.37;49.23;102659.63;5043359;28;20071;-37
2022/04/15 00:21:40;;;;;;;14.38;9.15;;;;;;;20.36;49.09;102648.00;5028153;28;20450;-38
2022/04/15 00:24:07;;;;;;;14.73;9.38;;;;;;;20.35;48.86;102658.91;5022923;28;20037;-37
2022/04/15 00:26:33;;;;;;;13.88;8.77;;;;;;;20.36;48.89;102660.63;5023982;28;20055;-38
2022/04/15 00:29:00;;;;;;;14.57;8.80;;;;;;;20.34;48.79;102658.06;5025552;28;20045;-38
2022/04/15 00:31:26;;;;;;;12.63;8.70;;;;;;;20.33;48.95;102664.41;5021521;28;20069;-37
2022/04/15 00:33:53;;;;;;;13.00;8.30;;;;;;;20.34;49.19;102665.25;5022725;28;20049;-37
2022/04/15 00:36:20;;;;;;;11.80;7.78;;;;;;;20.33;49.42;102666.25;5024756;28;20049;-37
2022/04/15 00:38:46;;;;;;;13.93;8.20;;;;;;;20.30;49.56;102667.38;5021918;28;20144;-37
2022/04/15 00:41:15;;;;;;;14.85;9.00;;;;;;;20.31;49.10;102665.53;5028287;28;20159;-37
2022/04/15 00:43:42;;;;;;;13.10;8.13;;;;;;;20.30;49.35;102669.19;5024964;28;20160;-37
2022/04/15 00:46:08;;;;;;;11.23;7.18;;;;;;;20.28;49.54;102666.63;5024399;28;20075;-37
2022/04/15 00:48:36;;;;;;;13.07;8.07;;;;;;;20.28;49.59;102674.69;5024273;28;20394;-37
2022/04/15 00:51:04;;;;;;;11.57;7.65;;;;;;;20.29;49.36;102672.84;5025778;28;20048;-37
2022/04/15 00:53:32;;;;;;;10.80;7.13;;;;;;;20.28;49.16;102668.47;5029520;28;20049;-37
2022/04/15 00:56:01;;;;;;;11.75;7.40;;;;;;;20.28;49.57;102673.84;5024531;28;20041;-38
2022/04/15 00:58:30;;;;;;;12.73;7.97;;;;;;;20.26;49.71;102675.78;5024052;28;20042;-38
2022/04/15 01:00:58;;;;;;;11.68;7.43;;;;;;;20.25;48.96;102679.47;5019731;28;20045;-38
2022/04/15 01:03:25;;;;;;;10.05;7.15;;;;;;;20.24;49.10;102684.00;5028957;28;20172;-37
2022/04/15 01:05:57;;;;;;;11.65;6.95;;;;;;;20.23;49.53;102678.75;5023927;28;20479;-37
2022/04/15 01:08:27;;;;;;;11.98;7.47;;;;;;;20.24;49.45;102680.47;5024690;28;20052;-37
2022/04/15 01:10:56;;;;;;;11.05;6.97;;;;;;;20.21;49.04;102679.72;5025817;28;20049;-37
2022/04/15 01:13:25;;;;;;;12.32;6.72;;;;;;;20.21;49.70;102684.25;5004252;28;21247;-37
2022/04/15 01:15:54;;;;;;;12.25;6.75;;;;;;;20.19;49.45;102687.06;5022989;28;20034;-37
2022/04/15 01:18:22;;;;;;;10.32;6.38;;;;;;;20.19;49.51;102688.91;5025675;28;20047;-37
2022/04/15 01:20:50;;;;;;;9.00;6.13;;;;;;;20.17;49.92;102689.00;5029915;28;20151;-37
2022/04/15 01:23:18;;;;;;;10.45;6.65;;;;;;;20.17;49.26;102690.84;5038722;28;20053;-37
2022/04/15 01:25:44;;;;;;;9.27;5.90;;;;;;;20.16;49.10;102690.00;5041643;28;20167;-37
2022/04/15 01:28:11;;;;;;;10.55;6.85;;;;;;;20.15;49.78;102690.13;5038676;28;20134;-37
2022/04/15 01:30:38;;;;;;;9.70;5.80;;;;;;;20.15;49.17;102690.13;5039036;28;20060;-38
2022/04/15 01:33:04;;;;;;;11.05;6.53;;;;;;;20.14;49.79;102691.09;5035854;28;20045;-38
2022/04/15 01:35:33;;;;;;;8.90;6.00;;;;;;;20.14;49.72;102696.47;5041655;28;20424;-38
2022/04/15 01:38:02;;;;;;;9.63;6.00;;;;;;;20.12;49.12;102693.06;5039839;28;20139;-38
2022/04/15 01:40:29;;;;;;;9.43;5.65;;;;;;;20.11;49.66;102689.53;5046367;28;20091;-38
2022/04/15 01:42:55;;;;;;;9.32;5.85;;;;;;;20.12;50.00;102698.44;5049170;28;20037;-37
2022/04/15 01:45:22;;;;;;;8.55;5.00;;;;;;;20.11;49.75;102689.53;5045234;28;20049;-37
2022/04/15 01:47:50;;;;;;;7.82;5.05;;;;;;;20.09;49.83;102694.16;5043032;28;20405;-37
2022/04/15 01:50:17;;;;;;;8.10;5.15;;;;;;;20.10;49.68;102695.00;5045963;28;20043;-37
2022/04/15 01:52:43;;;;;;;7.38;5.22;;;;;;;20.09;49.49;102702.22;5047544;28;20581;-37
2022/04/15 01:55:10;;;;;;;7.60;5.05;;;;;;;20.09;49.39;102702.22;5042456;28;20045;-38
2022/04/15 01:57:37;;;;;;;8.07;5.38;;;;;;;20.09;49.79;102696.84;5043163;28;20053;-38
2022/04/15 02:00:04;;;;;;;8.45;5.30;;;;;;;20.06;49.80;102699.81;5044364;28;20282;-38
2022/04/15 02:02:30;;;;;;;7.40;4.60;;;;;;;20.05;49.22;102692.69;5044861;28;20055;-38
2022/04/15 02:04:58;;;;;;;8.90;5.38;;;;;;;20.07;49.44;102703.34;5047532;28;20059;-38
2022/04/15 02:07:24;;;;;;;7.40;4.80;;;;;;;20.05;49.58;102705.28;5045632;28;20033;-38
2022/04/15 02:09:51;;;;;;;8.80;5.28;;;;;;;20.04;49.93;102707.13;5046347;28;20045;-38
2022/04/15 02:12:17;;;;;;;6.95;4.28;;;;;;;20.06;49.86;102712.38;5044562;28;20049;-37
2022/04/15 02:14:46;;;;;;;6.97;4.13;;;;;;;20.03;49.48;102715.34;5046117;28;20074;-38
2022/04/15 02:17:12;;;;;;;8.00;4.47;;;;;;;20.03;49.60;102708.13;5041160;28;20041;-38
2022/04/15 02:19:39;;;;;;;7.43;4.90;;;;;;;20.03;50.02;102708.13;5044323;28;20055;-37
2022/04/15 02:22:06;;;;;;;6.60;4.18;;;;;;;20.02;49.78;102716.28;5038587;28;20430;-38
2022/04/15 02:24:32;;;;;;;7.65;4.80;;;;;;;20.01;50.09;102718.13;5039059;28;20049;-38
2022/04/15 02:26:59;;;;;;;7.82;4.45;;;;;;;20.00;49.75;102708.34;5040403;28;20409;-38
2022/04/15 02:29:26;;;;;;;6.38;3.95;;;;;;;20.00;50.07;102718.25;5040015;28;20048;-38
2022/04/15 02:31:53;;;;;;;5.68;3.88;;;;;;;20.00;50.10;102713.72;5038197;28;20505;-38
2022/04/15 02:34:19;;;;;;;6.57;3.90;;;;;;;19.98;49.58;102713.00;5040614;28;20103;-37
2022/04/15 02:36:46;;;;;;;7.05;4.20;;;;;;;19.99;50.23;102714.72;5043218;28;20040;-38
2022/04/15 02:39:12;;;;;;;6.70;4.10;;;;;;;19.99;49.75;102716.56;5046542;28;20064;-38
2022/04/15 02:41:40;;;;;;;6.63;3.90;;;;;;;19.96;49.93;102713.13;5050462;28;20052;-38
2022/04/15 02:44:10;;;;;;;5.65;3.88;;;;;;;19.96;49.97;102712.25;5045090;28;20055;-38
2022/04/15 02:46:36;;;;;;;7.32;4.25;;;;;;;19.95;50.55;102715.94;5044097;28;20115;-37
2022/04/15 02:49:03;;;;;;;5.20;3.42;;;;;;;19.94;50.33;102714.22;5047132;28;20094;-38
2022/04/15 02:51:30;;;;;;;6.15;3.90;;;;;;;19.94;49.82;102714.22;5047317;28;20112;-38
2022/04/15 02:53:57;;;;;;;6.07;3.38;;;;;;;19.93;50.09;102712.50;5041547;28;20051;-37
2022/04/15 02:56:23;;;;;;;5.60;3.45;;;;;;;19.93;49.70;102725.94;5046383;28;20043;-37
2022/04/15 02:58:50;;;;;;;5.32;3.60;;;;;;;19.92;50.45;102717.03;5044415;28;20184;-37
2022/04/15 03:01:16;;;;;;;5.00;3.25;;;;;;;19.92;50.59;102724.25;5043519;28;20075;-37
2022/04/15 03:03:43;;;;;;;6.55;3.30;;;;;;;19.90;50.35;102726.19;5047506;28;20124;-37
2022/04/15 03:06:09;;;;;;;6.35;3.55;;;;;;;19.90;49.94;102735.16;5045816;28;20079;-37
2022/04/15 03:08:36;;;;;;;5.20;3.28;;;;;;;19.89;49.84;102727.16;5042076;28;20041;-37
2022/04/15 03:11:03;;;;;;;5.75;3.15;;;;;;;19.89;49.95;102732.56;5048144;28;20052;-37
2022/04/15 03:13:29;;;;;;;6.13;3.25;;;;;;;19.87;50.45;102726.44;5048475;28;20037;-37
2022/04/15 03:16:02;;;;;;;5.63;3.50;;;;;;;19.87;49.76;102737.22;5044707;28;20072;-37
2022/04/15 03:18:29;;;;;;;5.70;3.10;;;;;;;19.87;49.96;102739.91;5047168;28;20041;-37
2022/04/15 03:20:55;;;;;;;6.28;3.58;;;;;;;19.85;50.36;102731.06;5049652;28;20053;-38
2022/04/15 03:23:22;;;;;;;4.30;3.03;;;;;;;19.85;50.45;102733.78;5042554;28;20119;-37
2022/04/15 03:25:48;;;;;;;7.47;3.00;;;;;;;19.84;50.47;102740.13;5046166;28;20049;-37
2022/04/15 03:28:15;;;;;;;4.03;2.80;;;;;;;19.83;49.82;102735.75;5043865;28;20084;-37
2022/04/15 03:30:41;;;;;;;5.28;3.08;;;;;;;19.83;49.91;102733.03;5041425;28;20041;-37
2022/04/15 03:33:08;;;;;;;6.07;3.50;;;;;;;19.83;50.72;102733.03;5043380;28;20045;-37
2022/04/15 03:35:35;;;;;;;5.47;3.00;;;;;;;19.80;50.53;102739.50;5042587;28;20052;-37
2022/04/15 03:38:02;;;;;;;5.18;2.72;;;;;;;19.80;50.10;102744.03;5044675;28;20132;-37
2022/04/15 03:40:28;;;;;;;4.32;2.67;;;;;;;19.80;50.53;102744.03;5046792;28;20468;-37
2022/04/15 03:42:56;;;;;;;8.27;3.13;;;;;;;19.80;50.19;102752.13;5047706;28;20044;-37
2022/04/15 03:45:23;;;;;;;4.38;2.70;;;;;;;19.79;50.36;102745.03;5044534;28;20136;-37
2022/04/15 03:47:52;;;;;;;3.53;2.50;;;;;;;19.80;50.73;102749.44;5046130;28;20123;-37
2022/04/15 03:50:19;;;;;;;4.07;2.63;;;;;;;19.77;50.36;102749.66;5045471;28;20049;-37
2022/04/15 03:52:47;;;;;;;5.53;2.60;;;;;;;19.77;50.79;102749.66;5044497;28;20231;-37
2022/04/15 03:55:16;;;;;;;4.60;2.80;;;;;;;19.76;50.70;102751.50;5043053;28;20401;-37
2022/04/15 03:57:43;;;;;;;3.95;2.53;;;;;;;19.75;50.15;102751.63;5045146;28;20041;-37
2022/04/15 04:00:21;;;;;;;4.30;2.42;;;;;;;19.73;50.64;102752.56;5042936;28;20193;-37
2022/04/15 04:02:50;;;;;;;3.95;2.47;;;;;;;19.73;49.88;102755.25;5045321;28;20059;-37
2022/04/15 04:05:17;;;;;;;3.85;2.47;;;;;;;19.73;49.98;102760.66;5043445;28;20135;-37
2022/04/15 04:07:44;;;;;;;5.40;2.60;;;;;;;19.73;50.70;102755.25;5041263;28;20488;-37
2022/04/15 04:10:12;;;;;;;4.60;2.35;;;;;;;19.72;49.89;102758.09;5045512;28;20045;-37
2022/04/15 04:12:40;;;;;;;7.00;3.30;;;;;;;19.70;50.19;102750.16;5041097;28;20041;-37
2022/04/15 04:15:07;;;;;;;4.80;2.70;;;;;;;19.69;50.01;102756.47;5045782;28;20054;-38
2022/04/15 04:17:34;;;;;;;4.60;2.47;;;;;;;19.69;50.65;102753.78;5045395;28;20427;-37
2022/04/15 04:20:01;;;;;;;5.60;2.58;;;;;;;19.69;50.47;102758.31;5044487;28;20348;-37
2022/04/15 04:22:29;;;;;;;4.70;2.35;;;;;;;19.69;50.16;102761.84;5041284;28;20070;-37
2022/04/15 04:24:56;;;;;;;3.17;2.25;;;;;;;19.66;50.68;102764.81;5045158;28;20041;-37
2022/04/15 04:27:23;;;;;;;4.55;2.60;;;;;;;19.66;50.63;102769.34;5045788;28;20039;-37
2022/04/15 04:29:50;;;;;;;3.42;2.30;;;;;;;19.65;50.67;102767.59;5035701;28;20053;-37
2022/04/15 04:32:17;;;;;;;4.18;2.05;;;;;;;19.64;50.65;102773.97;5043531;28;20063;-37
2022/04/15 04:34:44;;;;;;;3.25;2.20;;;;;;;19.63;50.74;102781.19;5040659;28;20037;-37
2022/04/15 04:37:11;;;;;;;4.50;2.30;;;;;;;19.64;50.74;102776.66;5039529;28;20052;-38
2022/04/15 04:39:38;;;;;;;5.05;2.05;;;;;;;19.63;50.58;102775.78;5044070;28;20036;-37
2022/04/15 04:42:06;;;;;;;3.83;2.08;;;;;;;19.65;50.54;102783.72;5038437;28;20041;-37
2022/04/15 04:44:35;;;;;;;3.63;1.92;;;;;;;19.64;50.52;102792.78;5044478;28;20063;-37
2022/04/15 04:47:02;;;;;;;4.00;2.20;;;;;;;19.63;50.41;102800.00;5040606;28;20055;-37
2022/04/15 04:49:28;;;;;;;3.70;1.90;;;;;;;19.63;50.75;102797.31;5041624;28;20040;-37
2022/04/15 04:51:55;;;;;;;4.03;2.38;;;;;;;19.63;50.07;102802.69;5043979;28;20049;-37
2022/04/15 04:54:22;;;;;;;3.17;2.15;;;;;;;19.64;50.28;102803.56;5041287;28;20121;-37
2022/04/15 04:56:49;;;;;;;4.25;2.08;;;;;;;19.62;49.97;102806.38;5037304;28;20049;-36
2022/04/15 04:59:15;;;;;;;3.22;1.98;;;;;;;19.62;50.76;102803.69;5041177;28;20127;-37
2022/04/15 05:01:42;;;;;;;3.83;2.00;;;;;;;19.61;50.62;102804.63;5042076;28;20053;-37
2022/04/15 05:04:09;;;;;;;3.13;1.90;;;;;;;19.61;50.70;102803.75;5038600;28;20063;-37
2022/04/15 05:06:35;;;;;;;3.65;1.90;;;;;;;19.61;49.86;102811.81;5036834;28;20179;-37
2022/04/15 05:09:02;;;;;;;3.17;1.95;;;;;;;19.61;50.43;102811.81;5044867;28;20124;-37
2022/04/15 05:11:28;;;;;;;2.58;1.48;;;;;;;19.60;50.02;102812.78;5041072;28;20051;-37
2022/04/15 05:13:55;;;;;;;3.40;1.90;;;;;;;19.61;49.92;102814.50;5041944;28;20836;-38
2022/04/15 05:16:21;;;;;;;3.67;2.13;;;;;;;19.60;50.38;102819.03;5043776;28;20041;-37
2022/04/15 05:18:48;;;;;;;4.40;1.80;;;;;;;19.60;50.08;102820.88;5048970;28;20324;-37
2022/04/15 05:21:14;;;;;;;3.38;2.20;;;;;;;19.60;50.49;102824.41;5044671;28;20048;-37
2022/04/15 05:23:41;;;;;;;3.85;2.00;;;;;;;19.59;50.04;102827.22;5049776;28;20080;-37
2022/04/15 05:26:08;;;;;;;3.80;1.95;;;;;;;19.58;49.95;102826.38;5047091;28;20060;-37
2022/04/15 05:28:36;;;;;;;3.35;2.20;;;;;;;19.59;50.55;102832.59;5049141;28;20136;-37
2022/04/15 05:31:03;;;;;;;4.65;2.30;;;;;;;19.60;49.97;102842.38;5046937;28;20137;-37
2022/04/15 05:33:30;;;;;;;3.13;1.80;;;;;;;19.59;50.52;102844.22;5046864;28;20377;-37
2022/04/15 05:35:57;;;;;;;3.83;2.40;;;;;;;19.60;50.21;102839.69;5047594;28;20049;-37
2022/04/15 05:38:24;;;;;;;3.20;1.95;;;;;;;19.59;50.12;102841.53;5052117;28;20077;-37
2022/04/15 05:40:50;;;;;;;3.45;2.25;;;;;;;19.59;49.75;102846.91;5048625;28;20193;-37
2022/04/15 05:43:17;;;;;;;5.60;2.80;;;;;;;19.60;50.35;102851.31;5049948;28;20037;-37
2022/04/15 05:45:43;;;;;;;4.55;2.67;;;;;;;19.61;49.69;102854.84;5047875;28;20055;-37
2022/04/15 05:48:10;;;;;;;17.77;3.45;;;;;;;19.59;50.48;102854.97;5045492;28;20175;-37
2022/04/15 05:50:37;;;;;;;8.50;4.45;;;;;;;19.60;50.28;102861.22;5046496;28;20139;-37
2022/04/15 05:53:03;;;;;;;8.60;4.57;;;;;;;19.61;49.70;102868.31;5047954;28;20057;-37
2022/04/15 05:55:30;;;;;;;11.32;6.40;;;;;;;19.60;50.38;102864.75;5045431;28;20041;-37
2022/04/15 05:57:57;;;;;;;14.57;7.50;;;;;;;19.60;49.73;102872.81;5048793;28;20048;-38
2022/04/15 06:00:23;;;;;;;18.08;9.98;;;;;;;19.61;49.89;102876.38;5046465;28;20343;-38
2022/04/15 06:02:50;;;;;;;29.13;17.35;;;;;;;19.62;51.14;102870.06;5048426;28;20057;-37
2022/04/15 06:05:22;;;;;;;29.35;17.10;;;;;;;19.63;52.16;102869.94;5049777;28;20095;-38
2022/04/15 06:07:49;;;;;;;38.22;18.33;;;;;;;19.65;52.80;102875.19;5046496;28;20045;-37
2022/04/15 06:10:15;;;;;;;31.75;18.40;;;;;;;19.66;53.83;102877.78;5048931;28;20131;-38
2022/04/15 06:13:06;;;;;;;29.40;16.65;;;;;;;19.68;54.62;102877.66;5046701;28;20051;-38
2022/04/15 06:15:34;;;;;;;26.08;15.60;;;;;;;19.70;54.01;102883.81;5045872;28;20459;-38
2022/04/15 06:18:02;;;;;;;30.25;16.58;;;;;;;19.70;53.82;102883.81;5044947;28;20056;-37
2022/04/15 06:20:29;;;;;;;29.88;15.13;;;;;;;19.70;53.47;102881.13;5045837;28;20432;-38
2022/04/15 06:22:56;;;;;;;27.95;14.52;;;;;;;19.73;52.49;102894.31;5044467;28;20462;-39
2022/04/15 06:25:23;;;;;;;25.67;13.63;;;;;;;19.71;52.85;102894.44;5046639;28;20302;-39
2022/04/15 06:27:50;;;;;;;40.00;14.20;;;;;;;19.75;53.71;102896.91;5048946;28;20124;-39
2022/04/15 06:30:20;;;;;;;48.47;15.40;;;;;;;19.78;54.67;102894.84;5048379;28;20100;-39
2022/04/15 06:32:47;;;;;;;36.00;14.35;;;;;;;19.81;55.41;102896.44;5044933;28;20041;-39
2022/04/15 06:35:14;;;;;;;36.70;13.77;;;;;;;19.85;57.31;102904.16;5047652;28;20129;-39
2022/04/15 06:37:40;;;;;;;31.80;14.23;;;;;;;19.88;58.49;102906.63;5046628;28;20128;-39
2022/04/15 06:40:07;;;;;;;62.75;18.35;;;;;;;19.90;59.32;102910.06;5044759;28;20069;-39
2022/04/15 06:42:34;;;;;;;65.40;21.80;;;;;;;19.94;59.34;102913.41;5048192;28;20041;-39
2022/04/15 06:45:01;;;;;;;63.42;21.95;;;;;;;19.94;59.88;102916.94;5045633;28;20060;-39
2022/04/15 06:47:28;;;;;;;60.10;21.73;;;;;;;19.96;59.86;102922.19;5044684;28;20041;-39
2022/04/15 06:49:54;;;;;;;53.67;22.13;;;;;;;19.96;60.25;102916.81;5047253;28;20132;-39
2022/04/15 06:52:21;;;;;;;64.68;22.25;;;;;;;19.96;59.94;102927.59;5045028;28;20053;-40
2022/04/15 06:54:48;;;;;;;54.75;19.80;;;;;;;19.97;59.61;102922.06;5045647;28;20395;-38
2022/04/15 06:57:14;;;;;;;47.80;18.83;;;;;;;19.96;59.35;102924.91;5047681;28;20053;-38
2022/04/15 06:59:42;;;;;;;51.25;19.02;;;;;;;19.94;58.82;102918.78;5049275;28;20047;-38
2022/04/15 07:02:08;;;;;;;45.45;18.33;;;;;;;19.94;58.29;102924.16;5047509;28;20357;-38
2022/04/15 07:04:35;;;;;;;36.60;17.10;;;;;;;19.93;58.85;102922.44;5047727;28;20041;-38
2022/04/15 07:07:02;;;;;;;37.72;16.13;;;;;;;19.94;58.11;102929.56;5045738;28;20038;-38
2022/04/15 07:09:28;;;;;;;36.90;17.08;;;;;;;19.92;57.51;102928.78;5045953;28;20432;-38
2022/04/15 07:11:56;;;;;;;34.05;16.70;;;;;;;19.92;57.56;102929.66;5043693;28;20083;-38
2022/04/15 07:14:23;;;;;;;35.17;15.50;;;;;;;19.91;57.53;102927.94;5028062;28;20364;-38
2022/04/15 07:16:49;;;;;;;31.92;15.82;;;;;;;19.90;56.73;102928.91;5047288;28;20077;-38
2022/04/15 07:19:16;;;;;;;29.73;13.88;;;;;;;19.91;57.00;102932.47;5048097;28;20049;-38
2022/04/15 07:21:43;;;;;;;27.77;12.32;;;;;;;19.90;56.11;102928.91;5043795;28;20390;-38
2022/04/15 07:24:11;;;;;;;27.90;11.95;;;;;;;19.93;56.45;102933.19;5045021;28;20477;-38
2022/04/15 07:26:38;;;;;;;22.02;11.70;;;;;;;19.92;55.94;102929.66;5048616;28;20041;-39
2022/04/15 07:29:05;;;;;;;22.25;11.27;;;;;;;19.94;55.91;102937.63;5045121;28;20593;-38
2022/04/15 07:31:32;;;;;;;23.02;10.93;;;;;;;19.95;55.91;102939.34;5044076;28;20140;-38
2022/04/15 07:33:59;;;;;;;25.35;10.68;;;;;;;19.95;55.08;102937.50;5046718;28;20080;-38
2022/04/15 07:36:43;;;;;;;23.80;9.85;;;;;;;19.98;55.30;102944.50;5046095;28;20055;-38
2022/04/15 07:39:12;;;;;;;20.75;10.20;;;;;;;20.01;54.46;102949.63;5046589;28;20111;-38
2022/04/15 07:41:39;;;;;;;18.55;8.93;;;;;;;20.00;54.08;102945.22;5046626;28;20515;-38
2022/04/15 07:44:10;;;;;;;18.73;8.85;;;;;;;20.01;54.29;102949.63;5043700;28;20167;-38
2022/04/15 07:46:38;;;;;;;20.85;8.73;;;;;;;20.02;54.38;102948.69;5043037;28;20172;-38
2022/04/15 07:49:05;;;;;;;16.02;8.63;;;;;;;20.03;53.87;102944.16;5044698;28;20047;-37
2022/04/15 07:51:32;;;;;;;14.48;7.22;;;;;;;20.03;53.77;102945.00;5046653;28;20136;-38
2022/04/15 07:54:00;;;;;;;14.20;6.97;;;;;;;20.04;53.80;102956.63;5042152;28;20080;-38
2022/04/15 07:56:26;;;;;;;13.60;6.60;;;;;;;20.04;53.37;102957.47;5043750;28;20045;-38
2022/04/15 07:58:53;;;;;;;15.05;6.90;;;;;;;20.04;53.13;102960.16;5044189;28;20395;-38
2022/04/15 08:01:20;;;;;;;12.10;6.70;;;;;;;20.04;52.93;102956.63;5043357;28;20056;-38
2022/04/15 08:03:47;;;;;;;10.23;6.00;;;;;;;20.04;52.78;102952.09;5043542;28;20340;-38
2022/04/15 08:06:15;;;;;;;11.02;6.28;;;;;;;20.06;52.96;102950.16;5042159;28;20433;-38
2022/04/15 08:08:42;;;;;;;10.20;5.47;;;;;;;20.07;52.44;102945.63;5042046;28;20412;-38
2022/04/15 08:11:09;;;;;;;12.98;5.95;;;;;;;20.07;52.28;102957.25;5044518;28;20053;-38
2022/04/15 08:13:36;;;;;;;10.10;5.22;;;;;;;20.10;52.17;102965.09;5043298;28;20044;-38
2022/04/15 08:16:03;;;;;;;12.82;6.50;;;;;;;20.10;52.17;102965.09;5043259;28;20179;-38
2022/04/15 08:18:30;;;;;;;11.13;6.43;;;;;;;20.12;52.14;102960.44;5040854;28;20361;-38
2022/04/15 08:20:57;;;;;;;8.55;5.82;;;;;;;20.14;52.12;102963.00;5042918;28;20051;-38
2022/04/15 08:23:23;;;;;;;11.95;5.90;;;;;;;20.15;51.47;102959.38;5045923;28;20056;-38
2022/04/15 08:25:50;;;;;;;10.25;5.40;;;;;;;20.16;51.24;102964.63;5041344;28;20059;-38
2022/04/15 08:28:21;;;;;;;10.02;5.30;;;;;;;20.18;51.22;102957.31;5044729;28;20048;-38
2022/04/15 08:30:47;;;;;;;14.23;6.05;;;;;;;20.19;52.29;102964.41;5042555;28;20181;-39
2022/04/15 08:33:14;;;;;;;11.30;6.00;;;;;;;20.20;51.65;102960.72;5042202;28;20045;-39
2022/04/15 08:35:40;;;;;;;14.65;5.45;;;;;;;20.25;52.56;102962.22;5040056;28;20084;-40
2022/04/15 08:38:07;;;;;;;13.82;5.07;;;;;;;20.27;51.91;102963.81;5042266;28;20123;-40
2022/04/15 08:40:37;;;;;;;16.58;5.68;;;;;;;20.29;51.77;102967.25;5045655;28;20063;-40
2022/04/15 08:43:06;;;;;;;16.30;5.78;;;;;;;20.30;52.24;102968.97;5043641;28;20122;-40
2022/04/15 08:45:37;;;;;;;18.33;5.85;;;;;;;20.32;51.28;102966.16;5040358;28;20095;-40
2022/04/15 08:48:08;;;;;;;12.02;5.05;;;;;;;20.32;50.86;102967.00;5045443;28;20408;-40
2022/04/15 08:50:35;;;;;;;15.45;5.40;;;;;;;20.34;50.49;102969.56;5044554;28;20144;-40
2022/04/15 08:53:03;;;;;;;18.50;4.70;;;;;;;20.36;50.60;102970.34;5047230;28;20049;-40
2022/04/15 08:55:30;;;;;;;14.40;4.88;;;;;;;20.35;50.71;102974.88;5044509;28;20048;-40
2022/04/15 08:57:58;;;;;;;11.13;4.32;;;;;;;20.35;50.31;102977.56;5043711;28;20037;-40
2022/04/15 09:00:29;;;;;;;8.35;3.85;;;;;;;20.36;50.70;102981.97;5046577;28;20163;-40
2022/04/15 09:02:56;;;;;;;13.13;4.53;;;;;;;20.38;51.91;102982.72;5044616;28;20470;-40
2022/04/15 09:05:28;;;;;;;7.78;3.85;;;;;;;20.39;51.37;102981.75;5046873;28;20049;-40
2022/04/15 09:08:06;;;;;;;10.00;3.50;;;;;;;20.40;51.13;102985.28;5044897;28;20040;-40
2022/04/15 09:10:34;;;;;;;7.75;3.35;;;;;;;20.41;51.42;102981.59;5043283;28;20049;-41
2022/04/15 09:13:03;;;;;;;9.18;3.55;;;;;;;20.41;51.31;102981.59;5046141;28;20052;-40
2022/04/15 09:15:34;;;;;;;11.48;3.20;;;;;;;20.42;51.20;102986.00;5041891;28;20111;-40
2022/04/15 09:18:01;;;;;;;9.15;3.63;;;;;;;20.42;52.05;102988.69;5044110;28;20795;-40
2022/04/15 09:20:34;;;;;;;7.93;2.95;;;;;;;20.43;52.03;102995.84;5045228;28;20045;-40
2022/04/15 09:23:10;;;;;;;6.45;2.78;;;;;;;20.44;51.79;103000.25;5042759;28;20061;-40
2022/04/15 09:25:39;;;;;;;6.80;2.50;;;;;;;20.46;51.65;102999.16;5041836;28;20041;-40
2022/04/15 09:28:06;;;;;;;7.05;2.78;;;;;;;20.48;51.15;102995.47;5044898;28;20077;-40
2022/04/15 09:30:40;;;;;;;8.40;2.80;;;;;;;20.48;51.11;102999.03;5043581;28;20129;-40
2022/04/15 09:33:10;;;;;;;5.95;2.95;;;;;;;20.49;51.11;102997.22;5040581;28;20351;-40
2022/04/15 09:35:37;;;;;;;8.88;4.75;;;;;;;20.50;50.40;103004.31;5040017;28;20049;-40
2022/04/15 09:38:05;;;;;;;19.88;9.25;;;;;;;20.50;50.97;103005.16;5046542;28;20131;-40
2022/04/15 09:40:37;;;;;;;12.52;6.35;;;;;;;20.51;51.03;103006.06;5045345;28;20057;-40
2022/04/15 09:43:06;;;;;;;11.75;5.80;;;;;;;20.52;50.98;103005.06;5043625;28;20056;-41
2022/04/15 09:45:35;;;;;;;11.38;5.88;;;;;;;20.53;50.94;103013.03;5042915;28;20783;-40
2022/04/15 09:48:06;;;;;;;12.40;6.43;;;;;;;20.54;50.48;103001.25;5042720;28;20407;-40
2022/04/15 09:50:36;;;;;;;11.88;6.10;;;;;;;20.55;49.23;103011.09;5042937;28;20060;-39
2022/04/15 09:53:10;;;;;;;15.02;5.82;;;;;;;20.56;48.79;103018.19;5046437;28;20452;-38
2022/04/15 09:55:40;;;;;;;8.80;5.00;;;;;;;20.57;49.13;103017.22;5043238;28;20132;-39
2022/04/15 09:58:12;;;;;;;14.00;5.88;;;;;;;20.57;48.53;103011.81;5047044;28;20057;-40
2022/04/15 10:00:40;;;;;;;21.83;10.43;;;;;;;20.58;47.87;103010.88;5041717;28;20164;-40
2022/04/15 10:03:09;;;;;;;19.38;10.88;;;;;;;20.60;48.03;103010.72;5040538;28;20365;-39
2022/04/15 10:05:36;;;;;;;17.63;8.88;;;;;;;20.60;48.00;103021.50;5043843;28;20371;-39
2022/04/15 10:08:03;;;;;;;15.45;8.02;;;;;;;20.60;48.40;103019.66;5048995;28;20048;-39
2022/04/15 10:10:31;;;;;;;15.18;7.18;;;;;;;20.62;48.59;103027.63;5053214;28;20049;-39
2022/04/15 10:13:00;;;;;;;13.85;6.55;;;;;;;20.61;47.99;103024.06;5054529;28;20131;-39
2022/04/15 10:15:30;;;;;;;12.52;7.07;;;;;;;20.62;48.34;103022.25;5053796;28;20048;-39
2022/04/15 10:18:01;;;;;;;13.02;7.38;;;;;;;20.63;48.54;103023.97;5054531;28;20132;-39
2022/04/15 10:20:30;;;;;;;13.63;6.43;;;;;;;20.63;48.71;103029.38;5052047;28;20072;-39
2022/04/15 10:23:02;;;;;;;14.05;6.93;;;;;;;20.63;48.47;103024.84;5054546;28;20332;-39
2022/04/15 10:25:31;;;;;;;11.50;6.97;;;;;;;20.65;48.55;103020.16;5051713;28;20111;-39
2022/04/15 10:28:05;;;;;;;11.85;6.82;;;;;;;20.64;48.42;103023.84;5054234;28;20041;-39
2022/04/15 10:30:37;;;;;;;11.82;6.55;;;;;;;20.65;48.34;103017.47;5051914;28;20120;-39
2022/04/15 10:33:03;;;;;;;10.85;6.65;;;;;;;20.66;47.79;103019.22;5052098;28;20123;-39
2022/04/15 10:35:32;;;;;;;15.25;7.05;;;;;;;20.70;47.88;103026.09;5048583;28;20036;-39
2022/04/15 10:38:01;;;;;;;10.15;6.55;;;;;;;20.72;47.91;103017.88;5051845;28;20037;-39
2022/04/15 10:40:32;;;;;;;11.75;6.35;;;;;;;20.73;47.72;103019.59;5049596;28;20041;-39
2022/04/15 10:43:17;;;;;;;12.18;6.28;;;;;;;20.74;47.67;103015.03;5053815;28;20486;-39
2022/04/15 10:45:44;;;;;;;12.10;6.72;;;;;;;20.78;47.75;103024.63;5052658;28;20052;-39
2022/04/15 10:48:11;;;;;;;10.77;5.65;;;;;;;20.79;47.81;103013.72;5054239;28;20495;-39
2022/04/15 10:50:40;;;;;;;10.57;6.03;;;;;;;20.82;47.88;103012.63;5053097;28;20131;-40
2022/04/15 10:53:23;;;;;;;10.55;6.45;;;;;;;20.84;47.32;103011.53;5053202;28;20124;-39
2022/04/15 10:55:54;;;;;;;12.73;5.93;;;;;;;20.87;47.89;103013.13;5052013;28;20041;-40
2022/04/15 10:58:21;;;;;;;9.90;5.93;;;;;;;20.88;47.46;103014.84;5052542;28;20079;-40
2022/04/15 11:01:19;;;;;;;8.65;4.80;;;;;;;20.90;47.10;103010.19;5052288;28;20093;-40
2022/04/15 11:03:56;;;;;;;10.10;5.50;;;;;;;20.91;47.42;102995.75;5053702;28;20059;-40
2022/04/15 11:06:27;;;;;;;9.23;5.30;;;;;;;20.92;47.67;103002.84;5053139;28;20129;-40
2022/04/15 11:09:13;;;;;;;10.95;6.07;;;;;;;20.93;47.03;103002.72;5052254;28;20526;-40
2022/04/15 11:11:42;;;;;;;9.90;5.30;;;;;;;20.97;47.17;103003.34;5055136;28;20049;-40
2022/04/15 11:14:13;;;;;;;9.25;5.68;;;;;;;21.00;47.43;103010.34;5050476;28;20056;-41
2022/04/15 11:16:43;;;;;;;10.80;5.20;;;;;;;21.01;47.55;103002.13;5050994;28;20056;-42
2022/04/15 11:19:13;;;;;;;9.40;5.55;;;;;;;21.03;47.26;103004.72;5053465;28;20120;-41
2022/04/15 11:21:40;;;;;;;8.55;4.82;;;;;;;21.05;47.32;103006.28;5050824;28;20115;-41
2022/04/15 11:24:12;;;;;;;8.65;5.03;;;;;;;21.08;46.79;103005.19;5053600;28;20559;-39